sensor_id;sensor_type;location;lat;lon;timestamp;pressure;altitude;pressure_sealevel;temperature;humidity
70009;BME280;59542;37.950;-122.338;2023-07-13T00:00:07;101313.38;;;19.22;62.55
70009;BME280;59542;37.950;-122.338;2023-07-13T00:02:37;101304.69;;;19.25;62.91
70009;BME280;59542;37.950;-122.338;2023-07-13T00:05:03;101304.50;;;18.88;63.02
70009;BME280;59542;37.950;-122.338;2023-07-13T00:07:30;101314.94;;;19.18;62.99
70009;BME280;59542;37.950;-122.338;2023-07-13T00:09:57;101307.53;;;19.14;62.54
70009;BME280;59542;37.950;-122.338;2023-07-13T00:12:31;101312.69;;;19.32;63.26
70009;BME280;59542;37.950;-122.338;2023-07-13T00:15:01;101301.44;;;19.23;63.16
70009;BME280;59542;37.950;-122.338;2023-07-13T00:17:28;101296.63;;;19.31;63.32
70009;BME280;59542;37.950;-122.338;2023-07-13T00:19:56;101311.94;;;18.98;63.70
70009;BME280;59542;37.950;-122.338;2023-07-13T00:22:23;101308.63;;;18.74;65.62
70009;BME280;59542;37.950;-122.338;2023-07-13T00:24:54;101317.91;;;18.61;66.26
70009;BME280;59542;37.950;-122.338;2023-07-13T00:27:24;101321.59;;;18.55;65.63
70009;BME280;59542;37.950;-122.338;2023-07-13T00:29:52;101319.94;;;18.20;67.49
70009;BME280;59542;37.950;-122.338;2023-07-13T00:32:18;101328.28;;;18.02;67.65
70009;BME280;59542;37.950;-122.338;2023-07-13T00:34:45;101322.78;;;17.97;67.87
70009;BME280;59542;37.950;-122.338;2023-07-13T00:37:11;101325.22;;;17.99;67.89
70009;BME280;59542;37.950;-122.338;2023-07-13T00:39:38;101335.19;;;18.10;68.14
70009;BME280;59542;37.950;-122.338;2023-07-13T00:42:05;101321.44;;;17.83;68.26
70009;BME280;59542;37.950;-122.338;2023-07-13T00:44:31;101332.66;;;17.75;69.21
70009;BME280;59542;37.950;-122.338;2023-07-13T00:46:58;101332.22;;;17.54;69.40
70009;BME280;59542;37.950;-122.338;2023-07-13T00:49:26;101330.47;;;17.88;69.45
70009;BME280;59542;37.950;-122.338;2023-07-13T00:52:04;101323.22;;;17.65;68.92
70009;BME280;59542;37.950;-122.338;2023-07-13T00:54:38;101317.84;;;17.54;69.20
70009;BME280;59542;37.950;-122.338;2023-07-13T00:57:09;101329.91;;;17.46;69.40
70009;BME280;59542;37.950;-122.338;2023-07-13T00:59:41;101321.53;;;16.96;71.40
70009;BME280;59542;37.950;-122.338;2023-07-13T01:02:08;101328.69;;;17.02;70.40
70009;BME280;59542;37.950;-122.338;2023-07-13T01:04:35;101313.63;;;17.06;70.59
70009;BME280;59542;37.950;-122.338;2023-07-13T01:07:01;101313.63;;;17.06;70.85
70009;BME280;59542;37.950;-122.338;2023-07-13T01:09:27;101308.69;;;17.03;71.12
70009;BME280;59542;37.950;-122.338;2023-07-13T01:11:54;101310.69;;;17.07;71.38
70009;BME280;59542;37.950;-122.338;2023-07-13T01:14:20;101311.53;;;16.96;72.58
70009;BME280;59542;37.950;-122.338;2023-07-13T01:16:47;101309.97;;;17.12;71.35
70009;BME280;59542;37.950;-122.338;2023-07-13T01:19:35;101305.28;;;16.96;71.37
70009;BME280;59542;37.950;-122.338;2023-07-13T01:22:08;101305.53;;;16.94;71.34
70009;BME280;59542;37.950;-122.338;2023-07-13T01:24:38;101297.28;;;16.66;72.34
70009;BME280;59542;37.950;-122.338;2023-07-13T01:27:07;101305.63;;;16.64;72.41
70009;BME280;59542;37.950;-122.338;2023-07-13T01:29:36;101300.56;;;16.44;73.75
70009;BME280;59542;37.950;-122.338;2023-07-13T01:32:14;101303.47;;;16.31;73.87
70009;BME280;59542;37.950;-122.338;2023-07-13T01:34:40;101304.22;;;16.38;74.21
70009;BME280;59542;37.950;-122.338;2023-07-13T01:37:09;101303.75;;;16.53;73.46
70009;BME280;59542;37.950;-122.338;2023-07-13T01:39:35;101297.75;;;16.62;73.30
70009;BME280;59542;37.950;-122.338;2023-07-13T01:42:02;101301.56;;;16.73;72.52
70009;BME280;59542;37.950;-122.338;2023-07-13T01:44:29;101298.47;;;16.81;71.95
70009;BME280;59542;37.950;-122.338;2023-07-13T01:46:55;101296.44;;;16.42;73.50
70009;BME280;59542;37.950;-122.338;2023-07-13T01:49:22;101301.59;;;16.43;73.69
70009;BME280;59542;37.950;-122.338;2023-07-13T01:51:48;101303.75;;;16.53;73.44
70009;BME280;59542;37.950;-122.338;2023-07-13T01:54:14;101300.91;;;16.36;73.29
70009;BME280;59542;37.950;-122.338;2023-07-13T01:56:41;101288.34;;;16.53;73.14
70009;BME280;59542;37.950;-122.338;2023-07-13T01:59:08;101302.63;;;16.19;74.45
70009;BME280;59542;37.950;-122.338;2023-07-13T02:01:35;101303.34;;;16.26;73.79
70009;BME280;59542;37.950;-122.338;2023-07-13T02:04:02;101311.72;;;16.36;73.55
70009;BME280;59542;37.950;-122.338;2023-07-13T02:06:29;101309.94;;;16.30;72.62
70009;BME280;59542;37.950;-122.338;2023-07-13T02:08:55;101305.03;;;16.39;73.19
70009;BME280;59542;37.950;-122.338;2023-07-13T02:11:21;101308.06;;;16.66;72.27
70009;BME280;59542;37.950;-122.338;2023-07-13T02:13:48;101311.03;;;16.64;72.06
70009;BME280;59542;37.950;-122.338;2023-07-13T02:16:14;101308.81;;;16.96;70.43
70009;BME280;59542;37.950;-122.338;2023-07-13T02:18:40;101307.19;;;16.95;70.34
70009;BME280;59542;37.950;-122.338;2023-07-13T02:21:07;101309.50;;;17.27;69.47
70009;BME280;59542;37.950;-122.338;2023-07-13T02:23:33;101307.41;;;17.05;69.83
70009;BME280;59542;37.950;-122.338;2023-07-13T02:26:03;101309.03;;;17.06;69.21
70009;BME280;59542;37.950;-122.338;2023-07-13T02:28:30;101307.13;;;17.19;69.54
70009;BME280;59542;37.950;-122.338;2023-07-13T02:31:05;101304.09;;;17.03;69.40
70009;BME280;59542;37.950;-122.338;2023-07-13T02:33:31;101309.03;;;17.06;69.53
70009;BME280;59542;37.950;-122.338;2023-07-13T02:35:57;101305.72;;;17.04;69.62
70009;BME280;59542;37.950;-122.338;2023-07-13T02:38:23;101307.53;;;16.75;70.46
70009;BME280;59542;37.950;-122.338;2023-07-13T02:40:49;101298.03;;;16.73;70.77
70009;BME280;59542;37.950;-122.338;2023-07-13T02:43:16;101292.22;;;16.46;71.68
70009;BME280;59542;37.950;-122.338;2023-07-13T02:45:46;101298.41;;;16.11;73.69
70009;BME280;59542;37.950;-122.338;2023-07-13T02:48:13;101300.31;;;16.22;73.59
70009;BME280;59542;37.950;-122.338;2023-07-13T02:50:40;101303.81;;;16.11;74.09
70009;BME280;59542;37.950;-122.338;2023-07-13T02:53:06;101297.91;;;16.02;74.30
70009;BME280;59542;37.950;-122.338;2023-07-13T02:55:33;101301.00;;;15.88;74.88
70009;BME280;59542;37.950;-122.338;2023-07-13T02:57:59;101309.81;;;15.83;75.23
70009;BME280;59542;37.950;-122.338;2023-07-13T03:00:25;101296.81;;;15.92;75.06
70009;BME280;59542;37.950;-122.338;2023-07-13T03:02:51;101295.78;;;15.26;77.86
70009;BME280;59542;37.950;-122.338;2023-07-13T03:05:18;101297.66;;;15.25;78.12
70009;BME280;59542;37.950;-122.338;2023-07-13T03:07:45;101303.88;;;15.08;79.41
70009;BME280;59542;37.950;-122.338;2023-07-13T03:10:11;101307.56;;;14.95;79.95
70009;BME280;59542;37.950;-122.338;2023-07-13T03:12:37;101307.41;;;14.65;82.05
70009;BME280;59542;37.950;-122.338;2023-07-13T03:15:04;101311.41;;;14.31;83.79
70009;BME280;59542;37.950;-122.338;2023-07-13T03:17:31;101317.91;;;14.23;84.66
70009;BME280;59542;37.950;-122.338;2023-07-13T03:19:57;101312.75;;;14.15;85.14
70009;BME280;59542;37.950;-122.338;2023-07-13T03:22:23;101319.47;;;14.06;85.69
70009;BME280;59542;37.950;-122.338;2023-07-13T03:24:50;101322.16;;;14.06;85.88
70009;BME280;59542;37.950;-122.338;2023-07-13T03:27:17;101329.03;;;14.02;86.61
70009;BME280;59542;37.950;-122.338;2023-07-13T03:29:44;101320.34;;;13.99;87.10
70009;BME280;59542;37.950;-122.338;2023-07-13T03:32:10;101325.38;;;13.89;87.63
70009;BME280;59542;37.950;-122.338;2023-07-13T03:34:36;101326.25;;;13.83;88.13
70009;BME280;59542;37.950;-122.338;2023-07-13T03:37:03;101333.91;;;13.80;88.23
70009;BME280;59542;37.950;-122.338;2023-07-13T03:39:29;101325.44;;;13.76;88.73
70009;BME280;59542;37.950;-122.338;2023-07-13T03:41:56;101326.72;;;13.67;88.76
70009;BME280;59542;37.950;-122.338;2023-07-13T03:44:22;101332.97;;;13.61;89.60
70009;BME280;59542;37.950;-122.338;2023-07-13T03:46:48;101329.31;;;13.42;90.66
70009;BME280;59542;37.950;-122.338;2023-07-13T03:49:14;101325.19;;;13.39;91.52
70009;BME280;59542;37.950;-122.338;2023-07-13T03:51:40;101324.75;;;13.42;91.58
70009;BME280;59542;37.950;-122.338;2023-07-13T03:54:07;101342.16;;;13.40;91.65
70009;BME280;59542;37.950;-122.338;2023-07-13T03:56:33;101345.25;;;13.37;91.54
70009;BME280;59542;37.950;-122.338;2023-07-13T03:59:00;101339.91;;;13.30;91.79
70009;BME280;59542;37.950;-122.338;2023-07-13T04:01:26;101348.16;;;13.35;92.46
70009;BME280;59542;37.950;-122.338;2023-07-13T04:03:52;101323.78;;;13.17;93.43
70009;BME280;59542;37.950;-122.338;2023-07-13T04:06:25;101334.97;;;13.27;92.60
70009;BME280;59542;37.950;-122.338;2023-07-13T04:08:55;101353.94;;;13.32;92.06
70009;BME280;59542;37.950;-122.338;2023-07-13T04:11:23;101347.38;;;13.28;92.45
70009;BME280;59542;37.950;-122.338;2023-07-13T04:13:50;101350.91;;;13.22;92.89
70009;BME280;59542;37.950;-122.338;2023-07-13T04:16:18;101346.31;;;13.29;92.56
70009;BME280;59542;37.950;-122.338;2023-07-13T04:18:45;101345.91;;;13.19;93.16
70009;BME280;59542;37.950;-122.338;2023-07-13T04:21:13;101351.72;;;13.23;92.87
70009;BME280;59542;37.950;-122.338;2023-07-13T04:23:40;101349.84;;;13.23;92.95
70009;BME280;59542;37.950;-122.338;2023-07-13T04:26:07;101350.03;;;13.15;93.44
70009;BME280;59542;37.950;-122.338;2023-07-13T04:28:34;101363.47;;;13.15;93.60
70009;BME280;59542;37.950;-122.338;2023-07-13T04:31:00;101358.09;;;13.15;93.56
70009;BME280;59542;37.950;-122.338;2023-07-13T04:33:27;101366.56;;;13.18;93.35
70009;BME280;59542;37.950;-122.338;2023-07-13T04:35:54;101365.75;;;13.18;93.75
70009;BME280;59542;37.950;-122.338;2023-07-13T04:38:28;101369.91;;;13.14;94.06
70009;BME280;59542;37.950;-122.338;2023-07-13T04:41:00;101367.41;;;13.19;94.21
70009;BME280;59542;37.950;-122.338;2023-07-13T04:43:27;101379.41;;;13.10;94.61
70009;BME280;59542;37.950;-122.338;2023-07-13T04:45:54;101387.28;;;13.11;94.02
70009;BME280;59542;37.950;-122.338;2023-07-13T04:48:21;101390.19;;;13.23;93.96
70009;BME280;59542;37.950;-122.338;2023-07-13T04:50:47;101389.34;;;13.29;93.71
70009;BME280;59542;37.950;-122.338;2023-07-13T04:53:14;101398.63;;;13.33;93.42
70009;BME280;59542;37.950;-122.338;2023-07-13T04:55:40;101393.88;;;13.35;93.03
70009;BME280;59542;37.950;-122.338;2023-07-13T04:58:06;101394.72;;;13.23;93.72
70009;BME280;59542;37.950;-122.338;2023-07-13T05:00:33;101387.28;;;13.25;93.71
70009;BME280;59542;37.950;-122.338;2023-07-13T05:02:59;101389.53;;;13.21;93.61
70009;BME280;59542;37.950;-122.338;2023-07-13T05:05:26;101401.75;;;13.24;93.77
70009;BME280;59542;37.950;-122.338;2023-07-13T05:07:53;101401.75;;;13.17;93.98
70009;BME280;59542;37.950;-122.338;2023-07-13T05:10:20;101399.25;;;13.15;94.21
70009;BME280;59542;37.950;-122.338;2023-07-13T05:12:46;101409.59;;;13.25;93.59
70009;BME280;59542;37.950;-122.338;2023-07-13T05:15:12;101419.94;;;13.28;93.35
70009;BME280;59542;37.950;-122.338;2023-07-13T05:17:38;101406.28;;;13.30;93.39
70009;BME280;59542;37.950;-122.338;2023-07-13T05:20:07;101401.75;;;13.30;93.80
70009;BME280;59542;37.950;-122.338;2023-07-13T05:22:37;101418.47;;;13.39;93.73
70009;BME280;59542;37.950;-122.338;2023-07-13T05:25:05;101417.84;;;13.37;93.73
70009;BME280;59542;37.950;-122.338;2023-07-13T05:27:32;101420.16;;;13.33;93.88
70009;BME280;59542;37.950;-122.338;2023-07-13T05:29:58;101419.50;;;13.31;94.34
70009;BME280;59542;37.950;-122.338;2023-07-13T05:32:25;101417.47;;;13.33;94.52
70009;BME280;59542;37.950;-122.338;2023-07-13T05:34:51;101428.22;;;13.33;94.08
70009;BME280;59542;37.950;-122.338;2023-07-13T05:37:17;101429.63;;;13.42;93.63
70009;BME280;59542;37.950;-122.338;2023-07-13T05:39:43;101426.53;;;13.45;93.01
70009;BME280;59542;37.950;-122.338;2023-07-13T05:42:10;101423.88;;;13.39;93.34
70009;BME280;59542;37.950;-122.338;2023-07-13T05:44:36;101426.09;;;13.48;92.88
70009;BME280;59542;37.950;-122.338;2023-07-13T05:47:02;101418.69;;;13.31;93.76
70009;BME280;59542;37.950;-122.338;2023-07-13T05:49:29;101424.66;;;13.46;93.17
70009;BME280;59542;37.950;-122.338;2023-07-13T05:51:56;101428.19;;;13.46;92.83
70009;BME280;59542;37.950;-122.338;2023-07-13T05:54:22;101430.66;;;13.48;92.75
70009;BME280;59542;37.950;-122.338;2023-07-13T05:56:49;101433.75;;;13.52;92.40
70009;BME280;59542;37.950;-122.338;2023-07-13T05:59:15;101435.00;;;13.56;92.32
70009;BME280;59542;37.950;-122.338;2023-07-13T06:01:41;101430.84;;;13.53;92.10
70009;BME280;59542;37.950;-122.338;2023-07-13T06:04:08;101429.16;;;13.59;92.15
70009;BME280;59542;37.950;-122.338;2023-07-13T06:06:34;101427.53;;;13.58;92.08
70009;BME280;59542;37.950;-122.338;2023-07-13T06:09:00;101421.53;;;13.56;92.25
70009;BME280;59542;37.950;-122.338;2023-07-13T06:11:27;101425.88;;;13.57;91.98
70009;BME280;59542;37.950;-122.338;2023-07-13T06:13:56;101431.69;;;13.47;93.12
70009;BME280;59542;37.950;-122.338;2023-07-13T06:16:22;101421.53;;;13.49;93.03
70009;BME280;59542;37.950;-122.338;2023-07-13T06:18:51;101423.81;;;13.52;93.06
70009;BME280;59542;37.950;-122.338;2023-07-13T06:21:19;101423.59;;;13.60;92.47
70009;BME280;59542;37.950;-122.338;2023-07-13T06:23:48;101413.22;;;13.64;92.19
70009;BME280;59542;37.950;-122.338;2023-07-13T06:26:14;101421.31;;;13.57;92.08
70009;BME280;59542;37.950;-122.338;2023-07-13T06:28:40;101420.06;;;13.60;91.86
70009;BME280;59542;37.950;-122.338;2023-07-13T06:31:08;101425.63;;;13.65;91.94
70009;BME280;59542;37.950;-122.338;2023-07-13T06:33:35;101422.75;;;13.60;92.12
70009;BME280;59542;37.950;-122.338;2023-07-13T06:36:02;101419.03;;;13.61;92.11
70009;BME280;59542;37.950;-122.338;2023-07-13T06:38:29;101418.59;;;13.64;91.80
70009;BME280;59542;37.950;-122.338;2023-07-13T06:40:55;101416.09;;;13.69;91.58
70009;BME280;59542;37.950;-122.338;2023-07-13T06:43:22;101422.31;;;13.69;91.50
70009;BME280;59542;37.950;-122.338;2023-07-13T06:45:51;101417.59;;;13.58;91.73
70009;BME280;59542;37.950;-122.338;2023-07-13T06:48:18;101426.91;;;13.62;91.46
70009;BME280;59542;37.950;-122.338;2023-07-13T06:50:46;101416.34;;;13.54;91.98
70009;BME280;59542;37.950;-122.338;2023-07-13T06:53:13;101422.56;;;13.55;92.35
70009;BME280;59542;37.950;-122.338;2023-07-13T06:55:39;101419.88;;;13.48;93.16
70009;BME280;59542;37.950;-122.338;2023-07-13T06:58:06;101419.50;;;13.44;93.06
70009;BME280;59542;37.950;-122.338;2023-07-13T07:00:33;101414.31;;;13.43;93.19
70009;BME280;59542;37.950;-122.338;2023-07-13T07:02:59;101413.47;;;13.49;92.91
70009;BME280;59542;37.950;-122.338;2023-07-13T07:05:25;101405.84;;;13.46;93.31
70009;BME280;59542;37.950;-122.338;2023-07-13T07:07:53;101403.75;;;13.48;93.45
70009;BME280;59542;37.950;-122.338;2023-07-13T07:10:20;101401.69;;;13.43;93.90
70009;BME280;59542;37.950;-122.338;2023-07-13T07:12:46;101401.50;;;13.45;93.63
70009;BME280;59542;37.950;-122.338;2023-07-13T07:15:13;101410.19;;;13.47;93.52
70009;BME280;59542;37.950;-122.338;2023-07-13T07:17:39;101402.19;;;13.27;94.14
70009;BME280;59542;37.950;-122.338;2023-07-13T07:20:06;101401.75;;;13.17;94.70
70009;BME280;59542;37.950;-122.338;2023-07-13T07:22:32;101405.03;;;13.26;94.30
70009;BME280;59542;37.950;-122.338;2023-07-13T07:24:59;101400.09;;;13.16;94.89
70009;BME280;59542;37.950;-122.338;2023-07-13T07:27:26;101403.38;;;13.18;94.77
70009;BME280;59542;37.950;-122.338;2023-07-13T07:29:53;101400.47;;;13.19;94.46
70009;BME280;59542;37.950;-122.338;2023-07-13T07:32:20;101399.88;;;13.24;94.06
70009;BME280;59542;37.950;-122.338;2023-07-13T07:34:46;101400.09;;;13.23;94.12
70009;BME280;59542;37.950;-122.338;2023-07-13T07:37:14;101392.03;;;13.23;94.21
70009;BME280;59542;37.950;-122.338;2023-07-13T07:39:40;101391.81;;;13.24;94.54
70009;BME280;59542;37.950;-122.338;2023-07-13T07:42:06;101389.34;;;13.23;94.59
70009;BME280;59542;37.950;-122.338;2023-07-13T07:44:33;101394.09;;;13.27;94.37
70009;BME280;59542;37.950;-122.338;2023-07-13T07:46:59;101389.13;;;13.17;95.33
70009;BME280;59542;37.950;-122.338;2023-07-13T07:49:26;101391.38;;;13.20;95.28
70009;BME280;59542;37.950;-122.338;2023-07-13T07:51:52;101398.84;;;13.25;95.00
70009;BME280;59542;37.950;-122.338;2023-07-13T07:54:19;101391.41;;;13.27;95.12
70009;BME280;59542;37.950;-122.338;2023-07-13T07:56:45;101399.66;;;13.32;95.00
70009;BME280;59542;37.950;-122.338;2023-07-13T07:59:11;101396.13;;;13.32;95.50
70009;BME280;59542;37.950;-122.338;2023-07-13T08:01:37;101399.25;;;13.29;95.89
70009;BME280;59542;37.950;-122.338;2023-07-13T08:04:04;101401.72;;;13.37;95.41
70009;BME280;59542;37.950;-122.338;2023-07-13T08:06:32;101404.22;;;13.38;95.04
70009;BME280;59542;37.950;-122.338;2023-07-13T08:08:59;101399.44;;;13.40;94.67
70009;BME280;59542;37.950;-122.338;2023-07-13T08:11:25;101388.53;;;13.22;95.71
70009;BME280;59542;37.950;-122.338;2023-07-13T08:13:52;101396.34;;;13.30;95.43
70009;BME280;59542;37.950;-122.338;2023-07-13T08:16:18;101395.94;;;13.27;95.78
70009;BME280;59542;37.950;-122.338;2023-07-13T08:18:44;101402.78;;;13.29;95.87
70009;BME280;59542;37.950;-122.338;2023-07-13T08:21:10;101404.63;;;13.35;95.66
70009;BME280;59542;37.950;-122.338;2023-07-13T08:23:37;101396.56;;;13.29;96.47
70009;BME280;59542;37.950;-122.338;2023-07-13T08:26:04;101393.47;;;13.38;95.34
70009;BME280;59542;37.950;-122.338;2023-07-13T08:28:31;101393.44;;;13.45;95.26
70009;BME280;59542;37.950;-122.338;2023-07-13T08:31:02;101393.59;;;13.57;94.63
70009;BME280;59542;37.950;-122.338;2023-07-13T08:33:29;101399.84;;;13.51;94.57
70009;BME280;59542;37.950;-122.338;2023-07-13T08:35:55;101398.34;;;13.55;94.18
70009;BME280;59542;37.950;-122.338;2023-07-13T08:38:22;101396.69;;;13.54;94.40
70009;BME280;59542;37.950;-122.338;2023-07-13T08:40:54;101394.00;;;13.54;94.71
70009;BME280;59542;37.950;-122.338;2023-07-13T08:43:30;101392.38;;;13.53;94.62
70009;BME280;59542;37.950;-122.338;2023-07-13T08:48:38;101390.91;;;13.57;94.07
70009;BME280;59542;37.950;-122.338;2023-07-13T08:56:39;101389.28;;;13.56;93.73
70009;BME280;59542;37.950;-122.338;2023-07-13T08:59:13;101389.91;;;13.51;94.54
70009;BME280;59542;37.950;-122.338;2023-07-13T09:04:47;101392.19;;;13.41;94.40
70009;BME280;59542;37.950;-122.338;2023-07-13T09:15:35;101396.13;;;13.45;95.18
70009;BME280;59542;37.950;-122.338;2023-07-13T09:18:37;101388.50;;;13.35;95.44
70009;BME280;59542;37.950;-122.338;2023-07-13T09:21:18;101394.88;;;13.41;95.38
70009;BME280;59542;37.950;-122.338;2023-07-13T09:23:47;101394.44;;;13.51;95.07
70009;BME280;59542;37.950;-122.338;2023-07-13T09:26:22;101392.59;;;13.51;94.86
70009;BME280;59542;37.950;-122.338;2023-07-13T09:29:03;101397.53;;;13.54;95.08
70009;BME280;59542;37.950;-122.338;2023-07-13T09:31:43;101392.75;;;13.63;94.25
70009;BME280;59542;37.950;-122.338;2023-07-13T09:34:14;101385.72;;;13.62;93.84
70009;BME280;59542;37.950;-122.338;2023-07-13T09:36:40;101396.03;;;13.65;93.26
70009;BME280;59542;37.950;-122.338;2023-07-13T09:39:29;101395.44;;;13.63;93.30
70009;BME280;59542;37.950;-122.338;2023-07-13T09:42:12;101390.88;;;13.63;93.40
70009;BME280;59542;37.950;-122.338;2023-07-13T09:44:51;101394.00;;;13.60;93.43
70009;BME280;59542;37.950;-122.338;2023-07-13T09:47:30;101400.03;;;13.49;94.23
70009;BME280;59542;37.950;-122.338;2023-07-13T09:49:59;101393.41;;;13.52;94.04
70009;BME280;59542;37.950;-122.338;2023-07-13T09:52:28;101396.25;;;13.63;93.27
70009;BME280;59542;37.950;-122.338;2023-07-13T09:55:11;101389.25;;;13.62;93.62
70009;BME280;59542;37.950;-122.338;2023-07-13T09:57:48;101397.72;;;13.59;94.07
70009;BME280;59542;37.950;-122.338;2023-07-13T10:00:43;101383.88;;;13.56;95.13
70009;BME280;59542;37.950;-122.338;2023-07-13T10:03:33;101396.47;;;13.62;95.08
70009;BME280;59542;37.950;-122.338;2023-07-13T10:08:38;101399.84;;;13.51;95.14
70009;BME280;59542;37.950;-122.338;2023-07-13T10:11:27;101395.06;;;13.53;94.81
70009;BME280;59542;37.950;-122.338;2023-07-13T10:14:00;101387.81;;;13.53;95.19
70009;BME280;59542;37.950;-122.338;2023-07-13T10:16:35;101379.97;;;13.52;95.09
70009;BME280;59542;37.950;-122.338;2023-07-13T10:19:12;101385.16;;;13.46;95.55
70009;BME280;59542;37.950;-122.338;2023-07-13T10:21:54;101386.34;;;13.57;95.46
70009;BME280;59542;37.950;-122.338;2023-07-13T10:24:30;101382.72;;;13.38;96.37
70009;BME280;59542;37.950;-122.338;2023-07-13T10:29:40;101377.28;;;13.52;95.96
70009;BME280;59542;37.950;-122.338;2023-07-13T10:32:13;101378.50;;;13.56;95.83
70009;BME280;59542;37.950;-122.338;2023-07-13T10:34:41;101386.00;;;13.40;97.01
70009;BME280;59542;37.950;-122.338;2023-07-13T10:37:22;101376.00;;;13.61;96.14
70009;BME280;59542;37.950;-122.338;2023-07-13T10:39:53;101382.59;;;13.65;95.74
70009;BME280;59542;37.950;-122.338;2023-07-13T10:42:32;101375.97;;;13.67;95.19
70009;BME280;59542;37.950;-122.338;2023-07-13T10:45:01;101380.91;;;13.70;94.39
70009;BME280;59542;37.950;-122.338;2023-07-13T10:47:28;101369.38;;;13.63;94.98
70009;BME280;59542;37.950;-122.338;2023-07-13T10:49:56;101376.22;;;13.53;94.53
70009;BME280;59542;37.950;-122.338;2023-07-13T10:52:47;101367.94;;;13.61;94.00
70009;BME280;59542;37.950;-122.338;2023-07-13T10:55:40;101379.53;;;13.55;94.59
70009;BME280;59542;37.950;-122.338;2023-07-13T11:03:27;101382.88;;;13.50;95.31
70009;BME280;59542;37.950;-122.338;2023-07-13T11:06:15;101390.31;;;13.48;95.79
70009;BME280;59542;37.950;-122.338;2023-07-13T11:18:50;101390.31;;;13.48;94.79
70009;BME280;59542;37.950;-122.338;2023-07-13T11:21:21;101384.75;;;13.50;94.85
70009;BME280;59542;37.950;-122.338;2023-07-13T11:31:52;101386.41;;;13.44;95.59
70009;BME280;59542;37.950;-122.338;2023-07-13T11:34:29;101392.59;;;13.38;95.55
70009;BME280;59542;37.950;-122.338;2023-07-13T11:36:58;101384.53;;;13.38;95.33
70009;BME280;59542;37.950;-122.338;2023-07-13T11:39:34;101381.88;;;13.31;96.19
70009;BME280;59542;37.950;-122.338;2023-07-13T11:42:05;101375.44;;;13.32;96.43
70009;BME280;59542;37.950;-122.338;2023-07-13T11:44:33;101375.25;;;13.40;96.10
70009;BME280;59542;37.950;-122.338;2023-07-13T11:47:09;101378.13;;;13.32;96.46
70009;BME280;59542;37.950;-122.338;2023-07-13T11:49:45;101373.22;;;13.29;96.60
70009;BME280;59542;37.950;-122.338;2023-07-13T11:52:23;101382.25;;;13.41;96.36
70009;BME280;59542;37.950;-122.338;2023-07-13T11:54:56;101381.88;;;13.31;96.91
70009;BME280;59542;37.950;-122.338;2023-07-13T11:57:32;101380.22;;;13.37;96.77
70009;BME280;59542;37.950;-122.338;2023-07-13T12:00:00;101376.09;;;13.34;97.18
70009;BME280;59542;37.950;-122.338;2023-07-13T12:02:37;101377.97;;;13.27;97.95
70009;BME280;59542;37.950;-122.338;2023-07-13T12:05:06;101385.03;;;13.22;98.43
70009;BME280;59542;37.950;-122.338;2023-07-13T12:07:36;101387.28;;;13.25;98.76
70009;BME280;59542;37.950;-122.338;2023-07-13T12:10:24;101393.25;;;13.27;98.52
70009;BME280;59542;37.950;-122.338;2023-07-13T12:13:02;101396.97;;;13.26;98.75
70009;BME280;59542;37.950;-122.338;2023-07-13T12:15:44;101397.19;;;13.24;99.36
70009;BME280;59542;37.950;-122.338;2023-07-13T12:18:19;101400.09;;;13.29;98.94
70009;BME280;59542;37.950;-122.338;2023-07-13T12:20:46;101394.09;;;13.14;99.37
70009;BME280;59542;37.950;-122.338;2023-07-13T12:23:32;101406.28;;;13.30;99.24
70009;BME280;59542;37.950;-122.338;2023-07-13T12:26:04;101397.19;;;13.24;98.89
70009;BME280;59542;37.950;-122.338;2023-07-13T12:28:36;101406.91;;;13.18;99.45
70009;BME280;59542;37.950;-122.338;2023-07-13T12:31:05;101407.34;;;13.22;99.09
70009;BME280;59542;37.950;-122.338;2023-07-13T12:33:33;101401.31;;;13.27;98.92
70009;BME280;59542;37.950;-122.338;2023-07-13T12:36:02;101402.34;;;13.26;98.98
70009;BME280;59542;37.950;-122.338;2023-07-13T12:38:31;101403.41;;;13.25;99.29
70009;BME280;59542;37.950;-122.338;2023-07-13T12:40:58;101413.72;;;13.21;99.43
70009;BME280;59542;37.950;-122.338;2023-07-13T12:43:25;101419.13;;;13.21;99.47
70009;BME280;59542;37.950;-122.338;2023-07-13T12:46:02;101414.59;;;13.22;99.55
70009;BME280;59542;37.950;-122.338;2023-07-13T12:48:29;101409.38;;;13.20;99.17
70009;BME280;59542;37.950;-122.338;2023-07-13T12:50:56;101406.47;;;13.15;99.78
70009;BME280;59542;37.950;-122.338;2023-07-13T12:53:30;101410.66;;;13.24;98.69
70009;BME280;59542;37.950;-122.338;2023-07-13T12:56:03;101413.72;;;13.21;99.19
70009;BME280;59542;37.950;-122.338;2023-07-13T12:58:38;101407.53;;;13.14;99.39
70009;BME280;59542;37.950;-122.338;2023-07-13T13:01:08;101406.91;;;13.18;99.12
70009;BME280;59542;37.950;-122.338;2023-07-13T13:03:40;101411.25;;;13.13;99.07
70009;BME280;59542;37.950;-122.338;2023-07-13T13:06:24;101421.59;;;13.16;99.34
70009;BME280;59542;37.950;-122.338;2023-07-13T13:08:53;101426.78;;;13.11;99.36
70009;BME280;59542;37.950;-122.338;2023-07-13T13:11:22;101433.78;;;13.12;99.84
70009;BME280;59542;37.950;-122.338;2023-07-13T13:13:49;101425.09;;;13.10;99.67
70009;BME280;59542;37.950;-122.338;2023-07-13T13:16:26;101428.00;;;13.08;100.00
70009;BME280;59542;37.950;-122.338;2023-07-13T13:18:59;101432.78;;;13.00;100.00